Es ist keine erhöhte Aufmerksamkeit aufgrund des Wetters notwendig.   -   Es gibt keine Warnungen.

Nearby METAR Reports

 

ENZV - Stavanger
aktuell: 18/02/2019 16:50
stark bewölkt
stark bewölkt
 Wind von S
Wind: S 33 km/h
Temperatur: 8°C
Wind Chill: 3°C
Taupunkt: 6°C
Luftfeuchte: 87%
Luftdruck: 1004 hPa
Clouds: stark bewölkt
Visibility: 10 km
Cloud details: stark bewölkt 244 m
2019/02/18 15:50 ENZV 181550Z 17018KT 9999 BKN008 08/06 Q1004 TEMPO BKN010
ENBR - Bergen
aktuell: 18/02/2019 16:50
stark bewölkt
stark bewölkt
 Wind von S
Wind: S 41 km/h
Temperatur: 7°C
Wind Chill: 2°C
Taupunkt: 5°C
Luftfeuchte: 87%
Luftdruck: 1001 hPa
Clouds: stark bewölkt
Visibility: 10 km
Cloud details: Few Clouds 244 m
teilweise bewölkt 305 m
stark bewölkt 396 m
2019/02/18 15:50 ENBR 181550Z 18022KT 9999 FEW008 SCT010 BKN013 07/05 Q1001 TEMPO BKN015 RMK WIND 1200FT 17024KT
 
ENHD - Haugesund
aktuell: 18/02/2019 16:50
stark bewölkt
stark bewölkt
 Wind von S
Wind: S 39 km/h
Temperatur: 7°C
Wind Chill: 2°C
Taupunkt: 5°C
Luftfeuchte: 87%
Luftdruck: 1002 hPa
Clouds: stark bewölkt
Visibility: 9 km
Cloud details: stark bewölkt 244 m
2019/02/18 15:50 ENHD 181550Z 18021KT 9000 BKN008 07/05 Q1002
ENCN - Kristiansand
aktuell: 18/02/2019 16:50
Mist, geschlossene Wolkendecke
Mist, geschlossene Wolkendecke
 Wind von SSW
Wind: SSW 19 km/h
Temperatur: 6°C
Wind Chill: 3°C
Taupunkt: 6°C
Luftfeuchte: 100%
Luftdruck: 1008 hPa
Zusammenfassung: Mist
Clouds: geschlossene Wolkendecke
Visibility: 5 km
Cloud details: geschlossene Wolkendecke 91 m
2019/02/18 15:50 ENCN 181550Z 20010KT 4700 BR OVC003 06/06 Q1008
 
ENBO - Bodø
aktuell: 18/02/2019 16:50
Nearby showers, stark bewölkt
Nearby showers, stark bewölkt
 Wind von SSW
Wind: SSW 28 km/h
Temperatur: 6°C
Wind Chill: 2°C
Taupunkt: 3°C
Luftfeuchte: 81%
Luftdruck: 991 hPa
Zusammenfassung: Nearby Showers
Clouds: stark bewölkt
Visibility: 10 km
Cloud details: Few Clouds 457 m
Few Clouds 549 m
teilweise bewölkt 762 m
stark bewölkt 1524 m
2019/02/18 15:50 ENBO 181550Z 20015KT 9999 VCSH FEW015 FEW018TCU SCT025 BKN050 06/03 Q0991 TEMPO 23025G35KT
ENKR - Kirkenes
aktuell: 18/02/2019 16:50
Light snow, geschlossene Wolkendecke
Light snow, geschlossene Wolkendecke
 Wind von OSO
Wind: OSO 20 km/h
Temperatur: -10°C
Wind Chill: -18°C
Taupunkt: -12°C
Luftfeuchte: 85%
Luftdruck: 1000 hPa
Zusammenfassung: Light Snow
Clouds: geschlossene Wolkendecke
Visibility: 4 km
Cloud details: geschlossene Wolkendecke 183 m
2019/02/18 15:50 ENKR 181550Z 12011KT 3800 -SN VV006 M10/M12 Q1000 RMK WIND 731FT 11011KT
 
ENVA - Trondheim
aktuell: 18/02/2019 16:50
klar
klar
 Wind von S
Wind: S 26 km/h
Temperatur: 8°C
Wind Chill: 4°C
Taupunkt: -2°C
Luftfeuchte: 50%
Luftdruck: 997 hPa
Zusammenfassung: klar
Visibility: greater than 10 km
2019/02/18 15:50 ENVA 181550Z 18014KT CAVOK 08/M02 Q0997 NOSIG RMK WIND 670FT 18021KT
ENGM - Oslo
aktuell: 18/02/2019 16:50
Fog, geschlossene Wolkendecke
Fog, geschlossene Wolkendecke
 Wind von S
Wind: S 20 km/h
Temperatur: 2°C
Wind Chill: -3°C
Taupunkt: 2°C
Luftfeuchte: 100%
Luftdruck: 1005 hPa
Zusammenfassung: Fog
Clouds: geschlossene Wolkendecke
Visibility: 0 km
Cloud details: geschlossene Wolkendecke 30 m
2019/02/18 15:50 ENGM 181550Z 19011KT 0400 R19R/0325N R01R/0375D FG VV001 02/02 Q1005 TEMPO 0200 FG VV002